createdAt,value
2022-09-04T00:00:09.184Z,23.54
2022-09-04T00:05:08.417Z,23.57
2022-09-04T00:10:07.615Z,23.57
2022-09-04T00:15:07.008Z,23.58
2022-09-04T00:20:06.974Z,23.60
2022-09-04T00:25:05.151Z,23.60
2022-09-04T00:30:04.307Z,23.57
2022-09-04T00:35:04.470Z,23.60
2022-09-04T00:40:02.709Z,23.57
2022-09-04T00:45:01.852Z,23.58
2022-09-04T00:50:00.997Z,23.55
2022-09-04T00:55:01.149Z,23.54
2022-09-04T01:00:01.305Z,23.61
2022-09-04T01:04:58.452Z,23.69
2022-09-04T01:09:57.610Z,23.84
2022-09-04T01:14:57.779Z,24.03
2022-09-04T01:19:55.939Z,24.24
2022-09-04T01:24:55.080Z,24.40
2022-09-04T01:29:54.237Z,24.53
2022-09-04T01:34:54.382Z,24.61
2022-09-04T01:39:52.612Z,24.62
2022-09-04T01:44:52.782Z,24.49
2022-09-04T01:49:51.948Z,24.37
2022-09-04T01:54:50.113Z,24.46
2022-09-04T01:59:53.459Z,24.49
2022-09-04T02:04:50.486Z,24.49
2022-09-04T02:09:48.644Z,24.47
2022-09-04T02:14:46.782Z,24.32
2022-09-04T02:19:47.002Z,24.31
2022-09-04T02:24:45.325Z,24.12
2022-09-04T02:29:46.481Z,24.22
2022-09-04T02:34:44.629Z,24.22
2022-09-04T02:39:43.020Z,24.16
2022-09-04T02:44:42.180Z,24.08
2022-09-04T02:49:42.349Z,23.97
2022-09-04T02:54:40.493Z,24.00
2022-09-04T02:59:39.647Z,23.97
2022-09-04T03:04:40.821Z,23.95
2022-09-04T03:09:38.000Z,23.91
2022-09-04T03:14:39.149Z,23.88
2022-09-04T03:19:37.307Z,23.80
2022-09-04T03:24:36.431Z,23.80
2022-09-04T03:29:34.625Z,23.63
2022-09-04T03:34:33.755Z,23.53
2022-09-04T03:39:32.912Z,23.50
2022-09-04T03:44:32.274Z,23.53
2022-09-04T03:49:31.393Z,23.55
2022-09-04T03:54:30.529Z,23.58
2022-09-04T03:59:30.696Z,23.54
2022-09-04T04:04:31.843Z,23.53
2022-09-04T04:09:29.212Z,23.48
2022-09-04T04:14:28.328Z,23.48
2022-09-04T04:19:28.456Z,23.27
2022-09-04T04:24:25.782Z,22.83
2022-09-04T04:29:24.980Z,22.75
2022-09-04T04:34:23.189Z,22.68
2022-09-04T04:39:25.825Z,22.73
2022-09-04T04:44:23.635Z,22.70
2022-09-04T04:49:21.778Z,22.46
2022-09-04T04:54:21.923Z,22.47
2022-09-04T04:59:21.142Z,22.45
2022-09-04T05:04:19.318Z,22.27
2022-09-04T05:09:19.509Z,22.25
2022-09-04T05:14:17.662Z,22.06
2022-09-04T05:19:16.835Z,22.15
2022-09-04T05:24:16.030Z,22.03
2022-09-04T05:29:15.211Z,21.80
2022-09-04T05:34:14.403Z,21.75
2022-09-04T05:39:14.571Z,21.75
2022-09-04T05:44:12.778Z,21.91
2022-09-04T05:49:11.950Z,22.02
2022-09-04T05:54:11.135Z,21.94
2022-09-04T05:59:11.289Z,21.91
2022-09-04T06:04:08.488Z,21.75
2022-09-04T06:09:08.655Z,21.99
2022-09-04T06:14:06.807Z,22.14
2022-09-04T06:19:08.001Z,22.15
2022-09-04T06:24:06.217Z,22.21
2022-09-04T06:29:05.924Z,22.22
2022-09-04T06:34:04.639Z,22.21
2022-09-04T06:39:03.803Z,22.28
2022-09-04T06:44:02.933Z,22.15
2022-09-04T06:49:04.333Z,22.22
2022-09-04T06:54:01.480Z,22.14
2022-09-04T06:59:01.455Z,22.10
2022-09-04T07:03:59.805Z,21.84
2022-09-04T07:08:59.994Z,21.06
2022-09-04T07:13:58.174Z,21.14
2022-09-04T07:18:59.387Z,20.61
2022-09-04T07:24:00.844Z,20.48
2022-09-04T07:28:57.842Z,20.31
2022-09-04T07:33:54.975Z,20.47
2022-09-04T07:38:55.155Z,21.42
2022-09-04T07:43:55.085Z,21.79
2022-09-04T07:48:53.564Z,22.39
2022-09-04T07:53:52.717Z,22.22
2022-09-04T07:58:52.860Z,22.45
2022-09-04T08:03:54.662Z,22.82
2022-09-04T08:08:49.195Z,23.00
2022-09-04T08:13:47.361Z,22.62
2022-09-04T08:18:48.507Z,23.16
2022-09-04T08:23:46.638Z,23.47
2022-09-04T08:28:46.583Z,23.57
2022-09-04T08:33:45.330Z,23.72
2022-09-04T08:38:45.626Z,23.78
2022-09-04T08:43:43.914Z,23.32
2022-09-04T08:48:43.197Z,23.25
2022-09-04T08:53:42.580Z,23.31
2022-09-04T08:58:47.513Z,23.12
2022-09-04T09:03:40.833Z,23.15
2022-09-04T09:08:40.139Z,23.51
2022-09-04T09:13:39.456Z,23.75
2022-09-04T09:18:40.480Z,24.02
2022-09-04T09:23:38.044Z,23.75
2022-09-04T09:28:38.171Z,23.75
2022-09-04T09:33:38.313Z,23.25
2022-09-04T09:38:35.631Z,23.01
2022-09-04T09:43:35.951Z,22.97
2022-09-04T09:48:33.289Z,23.01
2022-09-04T09:53:33.434Z,22.91
2022-09-04T09:58:33.547Z,22.95
2022-09-04T10:03:32.867Z,23.35
2022-09-04T10:08:35.882Z,23.43
2022-09-04T10:13:32.702Z,23.48
2022-09-04T10:18:29.567Z,23.58
2022-09-04T10:23:29.889Z,23.75
2022-09-04T10:28:28.199Z,23.79
2022-09-04T10:33:27.700Z,23.79
2022-09-04T10:38:26.804Z,23.73
2022-09-04T10:43:28.111Z,23.80
2022-09-04T10:48:28.633Z,23.73
2022-09-04T10:53:25.641Z,23.65
2022-09-04T10:58:24.735Z,23.65
2022-09-04T11:03:24.281Z,23.58
2022-09-04T11:08:24.282Z,23.72
2022-09-04T11:13:22.592Z,23.76
2022-09-04T11:18:22.899Z,23.68
2022-09-04T11:23:21.197Z,23.57
2022-09-04T11:28:20.494Z,23.66
2022-09-04T11:33:18.810Z,23.79
2022-09-04T11:38:18.084Z,23.83
2022-09-04T11:43:17.380Z,23.73
2022-09-04T11:48:18.672Z,23.80
2022-09-04T11:53:15.834Z,23.76
2022-09-04T11:58:14.136Z,23.72
2022-09-04T12:03:14.268Z,23.78
2022-09-04T12:08:13.602Z,23.85
2022-09-04T12:13:15.166Z,23.85
2022-09-04T12:18:15.190Z,23.97
2022-09-04T12:23:11.515Z,24.05
2022-09-04T12:28:10.859Z,24.10
2022-09-04T12:33:10.977Z,24.09
2022-09-04T12:38:09.282Z,24.05
2022-09-04T12:43:09.647Z,24.05
2022-09-04T12:48:07.752Z,24.16
2022-09-04T12:53:07.069Z,24.21
2022-09-04T12:58:06.406Z,24.22
2022-09-04T13:03:06.575Z,24.15
2022-09-04T13:08:04.718Z,24.28
2022-09-04T13:13:04.014Z,24.25
2022-09-04T13:18:03.312Z,24.37
2022-09-04T13:23:02.594Z,24.39
2022-09-04T13:28:02.900Z,24.47
2022-09-04T13:33:01.187Z,24.49
2022-09-04T13:38:00.465Z,24.52
2022-09-04T13:42:59.769Z,24.57
2022-09-04T13:48:15.979Z,24.58
2022-09-04T13:52:58.309Z,24.57
2022-09-04T13:57:57.661Z,24.64
2022-09-04T14:02:56.677Z,24.64
2022-09-04T14:07:55.914Z,24.76
2022-09-04T14:12:56.142Z,24.76
2022-09-04T14:17:56.499Z,24.78
2022-09-04T14:22:54.597Z,24.80
2022-09-04T14:27:52.913Z,24.80
2022-09-04T14:32:55.606Z,24.71
2022-09-04T14:37:53.296Z,24.73
2022-09-04T14:42:52.590Z,24.78
2022-09-04T14:47:49.881Z,24.81
2022-09-04T14:52:50.191Z,24.78
2022-09-04T14:57:48.503Z,24.85
2022-09-04T15:02:48.806Z,24.83
2022-09-04T15:07:49.140Z,24.81
2022-09-04T15:12:48.412Z,24.84
2022-09-04T15:17:47.220Z,24.90
2022-09-04T15:22:45.860Z,24.93
2022-09-04T15:27:44.185Z,24.99
2022-09-04T15:32:44.509Z,25.03
2022-09-04T15:37:42.839Z,25.06
2022-09-04T15:42:42.126Z,25.05
2022-09-04T15:47:41.432Z,25.13
2022-09-04T15:52:40.743Z,25.00
2022-09-04T15:57:40.045Z,25.06
2022-09-04T16:02:41.384Z,25.14
2022-09-04T16:07:39.713Z,25.10
2022-09-04T16:12:37.811Z,25.17
2022-09-04T16:17:38.142Z,25.27
2022-09-04T16:22:37.425Z,25.32
2022-09-04T16:27:35.723Z,25.36
2022-09-04T16:32:36.031Z,25.47
2022-09-04T16:37:34.300Z,25.55
2022-09-04T16:42:33.593Z,25.60
2022-09-04T16:47:32.889Z,25.69
2022-09-04T16:52:32.243Z,25.61
2022-09-04T16:57:32.600Z,25.60
2022-09-04T17:02:35.670Z,25.60
2022-09-04T17:07:30.013Z,25.60
2022-09-04T17:12:29.139Z,25.54
2022-09-04T17:17:31.471Z,25.52
2022-09-04T17:28:56.701Z,25.28
2022-09-04T17:29:11.490Z,24.81
2022-09-04T17:38:09.071Z,24.52
2022-09-04T17:40:55.089Z,24.24
2022-09-04T17:42:24.562Z,24.22
2022-09-04T17:47:24.696Z,24.03
2022-09-04T17:52:22.999Z,23.83
2022-09-04T17:57:22.455Z,23.68
2022-09-04T18:02:22.774Z,23.51
2022-09-04T18:07:57.775Z,23.31
2022-09-04T18:12:21.201Z,23.05
2022-09-04T18:17:19.498Z,22.88
2022-09-04T18:22:26.870Z,22.80
2022-09-04T18:27:18.072Z,22.88
2022-09-04T18:37:12.480Z,22.72
2022-09-04T18:37:44.478Z,22.52
2022-09-04T18:50:20.428Z,22.54
2022-09-04T18:50:51.557Z,22.42
2022-09-04T18:52:13.979Z,22.10
2022-09-04T18:57:13.223Z,21.92
2022-09-04T19:02:13.674Z,21.75
2022-09-04T19:07:11.691Z,21.42
2022-09-04T19:12:11.950Z,21.61
2022-09-04T19:17:10.794Z,21.53
2022-09-04T19:22:08.373Z,21.35
2022-09-04T19:27:21.966Z,21.31
2022-09-04T19:32:08.490Z,21.14
2022-09-04T19:37:24.706Z,21.16
2022-09-04T19:46:19.139Z,20.94
2022-09-04T19:47:05.664Z,20.91
2022-09-04T19:53:33.748Z,20.77
2022-09-04T19:57:31.685Z,20.79
2022-09-04T20:02:03.823Z,20.32
2022-09-04T20:07:03.396Z,20.58
2022-09-04T20:12:01.650Z,20.80
2022-09-04T20:17:02.119Z,20.50
2022-09-04T20:21:59.886Z,20.59
2022-09-04T20:26:59.212Z,20.39
2022-09-04T20:31:58.636Z,20.72
2022-09-04T20:36:58.779Z,20.42
2022-09-04T20:41:58.141Z,20.03
2022-09-04T20:52:44.449Z,20.32
2022-09-04T20:52:58.851Z,20.55
2022-09-04T21:00:44.039Z,19.98
2022-09-04T21:03:23.006Z,20.16
2022-09-04T21:06:53.097Z,20.85
2022-09-04T21:11:52.455Z,20.39
2022-09-04T21:16:52.639Z,20.66
2022-09-04T21:21:50.722Z,21.09
2022-09-04T21:26:51.043Z,21.90
2022-09-04T21:31:50.402Z,22.36
2022-09-04T21:36:48.530Z,22.57
2022-09-04T21:41:48.816Z,22.77
2022-09-04T21:46:47.201Z,22.86
2022-09-04T21:51:48.381Z,22.91
2022-09-04T22:02:25.257Z,22.83
2022-09-04T22:02:36.083Z,22.65
2022-09-04T22:09:19.321Z,22.70
2022-09-04T22:13:29.944Z,23.09
2022-09-04T22:16:43.293Z,23.22
2022-09-04T22:21:41.439Z,23.32
2022-09-04T22:26:41.758Z,23.33
2022-09-04T22:31:41.200Z,23.35
2022-09-04T22:36:40.374Z,23.40
2022-09-04T22:41:39.458Z,23.46
2022-09-04T22:46:37.791Z,23.46
2022-09-04T22:51:38.017Z,23.33
2022-09-04T22:56:36.109Z,23.39
2022-09-04T23:01:35.446Z,23.19
2022-09-04T23:09:24.911Z,23.05
2022-09-04T23:13:57.992Z,23.00
2022-09-04T23:16:33.194Z,23.20
2022-09-04T23:26:38.558Z,23.04
2022-09-04T23:26:58.514Z,23.09
2022-09-04T23:31:30.763Z,23.31
2022-09-04T23:36:33.597Z,22.58
2022-09-04T23:41:29.350Z,23.02
2022-09-04T23:46:28.517Z,23.22
2022-09-04T23:51:29.673Z,22.45
2022-09-04T23:56:27.848Z,22.91
